Time;durP1;ratioP1;P1;durP2;ratioP2;P2;SDS_P1;SDS_P2;PMS_P1;PMS_P2;Temp;Humidity;BMP_temperature;BMP_pressure;BME280_temperature;BME280_humidity;BME280_pressure;Samples;Min_cycle;Max_cycle;Signal;HPM_P1;HPM_P2
2022/10/29 00:00:27;;;;;;;;;18.33;15.33;;;;;;;;5090884;27;45429;-74
2022/10/29 00:02:52;;;;;;;;;16.00;14.67;;;;;;;;5089321;27;45435;-74
2022/10/29 00:05:17;;;;;;;;;14.33;14.00;;;;;;;;5092931;27;45466;-74
2022/10/29 00:07:42;;;;;;;;;18.67;14.67;;;;;;;;5072238;27;47604;-74
2022/10/29 00:10:08;;;;;;;;;17.33;15.67;;;;;;;;5091775;27;45374;-74
2022/10/29 00:12:33;;;;;;;;;16.00;15.00;;;;;;;;5089784;27;45334;-74
2022/10/29 00:14:58;;;;;;;;;19.00;16.00;;;;;;;;5090733;27;45430;-74
2022/10/29 00:17:23;;;;;;;;;16.67;15.67;;;;;;;;5093021;27;45558;-74
2022/10/29 00:19:49;;;;;;;;;16.67;16.00;;;;;;;;5091081;27;45461;-75
2022/10/29 00:22:14;;;;;;;;;12.67;12.67;;;;;;;;5100822;27;45310;-75
2022/10/29 00:24:39;;;;;;;;;2.00;0.00;;;;;;;;5078163;27;45607;-75
2022/10/29 00:27:04;;;;;;;;;15.33;14.67;;;;;;;;5082704;27;45289;-75
2022/10/29 00:29:30;;;;;;;;;20.67;16.00;;;;;;;;5071076;27;45253;-75
2022/10/29 00:31:55;;;;;;;;;17.33;14.67;;;;;;;;5082969;27;45459;-75
2022/10/29 00:34:20;;;;;;;;;15.33;14.00;;;;;;;;5095318;27;45430;-75
2022/10/29 00:36:45;;;;;;;;;14.33;11.00;;;;;;;;5067644;27;47057;-75
2022/10/29 00:39:14;;;;;;;;;16.00;13.67;;;;;;;;5089598;27;45520;-75
2022/10/29 00:41:39;;;;;;;;;16.67;15.33;;;;;;;;5087925;27;45507;-75
2022/10/29 00:44:13;;;;;;;;;16.00;14.00;;;;;;;;5089570;27;45363;-75
2022/10/29 00:46:40;;;;;;;;;17.33;16.00;;;;;;;;5090175;27;45506;-75
2022/10/29 00:49:06;;;;;;;;;16.33;13.00;;;;;;;;5076082;27;45229;-75
2022/10/29 00:51:31;;;;;;;;;13.33;13.33;;;;;;;;5075904;27;45323;-75
2022/10/29 00:54:03;;;;;;;;;16.33;15.33;;;;;;;;5095443;27;45577;-75
2022/10/29 00:56:29;;;;;;;;;20.00;16.67;;;;;;;;5090269;27;46929;-75
2022/10/29 00:58:55;;;;;;;;;15.67;14.67;;;;;;;;5098581;27;45273;-75
2022/10/29 01:01:20;;;;;;;;;20.67;16.33;;;;;;;;5064057;28;45323;-75
2022/10/29 01:03:46;;;;;;;;;19.67;15.33;;;;;;;;5092719;27;46104;-75
2022/10/29 01:06:11;;;;;;;;;20.00;16.00;;;;;;;;5088016;27;45669;-75
2022/10/29 01:08:37;;;;;;;;;17.33;17.33;;;;;;;;5075767;28;45508;-75
2022/10/29 01:11:21;;;;;;;;;17.00;14.67;;;;;;;;5086747;27;45411;-75
2022/10/29 01:13:46;;;;;;;;;15.67;15.67;;;;;;;;5081092;27;47093;-76
2022/10/29 01:16:35;;;;;;;;;16.67;13.67;;;;;;;;5068750;27;48001;-75
2022/10/29 01:19:00;;;;;;;;;15.67;15.67;;;;;;;;5071833;27;45519;-75
2022/10/29 01:21:39;;;;;;;;;14.67;13.67;;;;;;;;5096508;27;45325;-75
2022/10/29 01:24:23;;;;;;;;;21.33;18.00;;;;;;;;5091120;27;45386;-75
2022/10/29 01:27:06;;;;;;;;;18.00;15.00;;;;;;;;5094200;27;46193;-75
2022/10/29 01:29:41;;;;;;;;;17.33;15.67;;;;;;;;5091172;27;45294;-75
2022/10/29 01:32:11;;;;;;;;;17.00;16.00;;;;;;;;5080944;27;45239;-75
2022/10/29 01:34:47;;;;;;;;;22.67;19.67;;;;;;;;5091857;27;45420;-75
2022/10/29 01:37:15;;;;;;;;;19.00;17.67;;;;;;;;5081412;27;45407;-75
2022/10/29 01:39:41;;;;;;;;;17.00;16.00;;;;;;;;5086561;27;45292;-75
2022/10/29 01:42:12;;;;;;;;;20.00;17.33;;;;;;;;5086776;27;45318;-76
2022/10/29 01:44:42;;;;;;;;;22.00;17.00;;;;;;;;5086482;27;45590;-75
2022/10/29 01:47:12;;;;;;;;;22.67;15.33;;;;;;;;5088945;27;46054;-75
2022/10/29 01:49:39;;;;;;;;;21.00;17.33;;;;;;;;5089562;27;45452;-75
2022/10/29 01:52:06;;;;;;;;;20.67;16.67;;;;;;;;5065395;27;45415;-75
2022/10/29 01:54:31;;;;;;;;;16.67;14.33;;;;;;;;5072991;27;45371;-75
2022/10/29 01:56:57;;;;;;;;;17.33;14.00;;;;;;;;5067570;27;47330;-75
2022/10/29 01:59:23;;;;;;;;;21.00;19.67;;;;;;;;5099011;27;45849;-75
2022/10/29 02:02:07;;;;;;;;;16.33;14.33;;;;;;;;5100219;27;45287;-75
2022/10/29 02:04:38;;;;;;;;;18.00;15.00;;;;;;;;5093293;27;45442;-75
2022/10/29 02:07:16;;;;;;;;;15.00;13.67;;;;;;;;5087183;27;45431;-75
2022/10/29 02:09:53;;;;;;;;;21.00;17.50;;;;;;;;5087602;27;45222;-75
2022/10/29 02:12:21;;;;;;;;;16.00;15.00;;;;;;;;5081398;27;45243;-75
2022/10/29 02:14:50;;;;;;;;;19.67;16.67;;;;;;;;5090160;27;45407;-75
2022/10/29 02:17:16;;;;;;;;;18.33;17.33;;;;;;;;5079930;27;47143;-75
2022/10/29 02:19:41;;;;;;;;;16.00;14.33;;;;;;;;5088665;27;45368;-75
2022/10/29 02:22:06;;;;;;;;;18.33;15.33;;;;;;;;5085009;27;45441;-75
2022/10/29 02:24:31;;;;;;;;;18.33;14.67;;;;;;;;5077976;27;45703;-75
2022/10/29 02:26:56;;;;;;;;;17.33;16.00;;;;;;;;5067941;27;47036;-75
2022/10/29 02:29:22;;;;;;;;;15.33;14.33;;;;;;;;5085250;27;45256;-75
2022/10/29 02:31:47;;;;;;;;;19.00;14.67;;;;;;;;5087279;27;45235;-75
2022/10/29 02:34:12;;;;;;;;;20.33;13.67;;;;;;;;5090324;27;45607;-75
2022/10/29 02:36:38;;;;;;;;;15.33;15.00;;;;;;;;5086892;27;45501;-75
2022/10/29 02:39:03;;;;;;;;;16.00;14.00;;;;;;;;5090994;27;45388;-74
2022/10/29 02:41:28;;;;;;;;;18.67;16.00;;;;;;;;5087353;27;45138;-75
2022/10/29 02:43:53;;;;;;;;;17.33;13.00;;;;;;;;5098050;27;45560;-75
2022/10/29 02:46:19;;;;;;;;;14.00;13.00;;;;;;;;5090462;27;46097;-75
2022/10/29 02:48:45;;;;;;;;;18.33;15.00;;;;;;;;5070918;27;45341;-74
2022/10/29 02:51:10;;;;;;;;;18.67;15.00;;;;;;;;5091909;27;45206;-74
2022/10/29 02:53:35;;;;;;;;;18.67;16.00;;;;;;;;5090836;27;45557;-74
2022/10/29 02:56:01;;;;;;;;;18.67;17.00;;;;;;;;5084694;27;45422;-75
2022/10/29 02:58:26;;;;;;;;;18.67;15.00;;;;;;;;5091540;27;45259;-74
2022/10/29 03:00:51;;;;;;;;;19.33;16.67;;;;;;;;5093234;27;45387;-74
2022/10/29 03:03:17;;;;;;;;;19.00;17.33;;;;;;;;5070449;27;45510;-75
2022/10/29 03:05:42;;;;;;;;;15.33;15.33;;;;;;;;5085786;27;45563;-75
2022/10/29 03:08:07;;;;;;;;;15.67;13.67;;;;;;;;5076294;27;45270;-75
2022/10/29 03:10:32;;;;;;;;;15.33;13.67;;;;;;;;5085776;27;45489;-74
2022/10/29 03:12:58;;;;;;;;;14.67;12.33;;;;;;;;5097652;27;45548;-75
2022/10/29 03:15:23;;;;;;;;;21.33;16.67;;;;;;;;5083472;27;45987;-74
2022/10/29 03:17:49;;;;;;;;;12.67;12.67;;;;;;;;5086004;27;45277;-75
2022/10/29 03:20:14;;;;;;;;;17.33;15.67;;;;;;;;5091358;27;45790;-75
2022/10/29 03:22:39;;;;;;;;;13.67;12.33;;;;;;;;5088663;27;45344;-75
2022/10/29 03:25:04;;;;;;;;;19.33;16.33;;;;;;;;5084560;27;45452;-75
2022/10/29 03:27:30;;;;;;;;;12.67;11.33;;;;;;;;5075628;27;45479;-75
2022/10/29 03:29:55;;;;;;;;;14.00;13.00;;;;;;;;5074366;28;45311;-75
2022/10/29 03:32:20;;;;;;;;;16.67;13.00;;;;;;;;5080070;27;45600;-75
2022/10/29 03:34:45;;;;;;;;;15.33;13.00;;;;;;;;5095127;27;46116;-75
2022/10/29 03:37:10;;;;;;;;;18.00;15.67;;;;;;;;5091524;27;45291;-75
2022/10/29 03:39:35;;;;;;;;;12.00;11.33;;;;;;;;5089457;27;45288;-75
2022/10/29 03:42:02;;;;;;;;;17.67;12.00;;;;;;;;5092709;27;45394;-75
2022/10/29 03:44:28;;;;;;;;;12.67;11.33;;;;;;;;5094467;27;46206;-75
2022/10/29 03:46:53;;;;;;;;;14.33;13.33;;;;;;;;5094131;27;45399;-75
2022/10/29 03:49:18;;;;;;;;;11.33;11.00;;;;;;;;5081930;27;45571;-75
2022/10/29 03:51:43;;;;;;;;;14.33;13.00;;;;;;;;5082171;27;45420;-75
2022/10/29 03:54:08;;;;;;;;;15.67;13.67;;;;;;;;5094511;27;46450;-75
2022/10/29 03:56:33;;;;;;;;;15.33;13.33;;;;;;;;5093924;27;45330;-75
2022/10/29 03:58:59;;;;;;;;;14.33;13.33;;;;;;;;5094037;27;45237;-75
2022/10/29 04:01:24;;;;;;;;;14.67;13.00;;;;;;;;5082509;27;45387;-75
2022/10/29 04:03:49;;;;;;;;;14.00;13.00;;;;;;;;5093473;27;45275;-75
2022/10/29 04:06:14;;;;;;;;;20.00;14.33;;;;;;;;5088234;27;45244;-75
2022/10/29 04:08:40;;;;;;;;;11.00;10.00;;;;;;;;5095305;27;45528;-75
2022/10/29 04:11:07;;;;;;;;;15.67;12.33;;;;;;;;5075621;27;45922;-75
2022/10/29 04:13:32;;;;;;;;;17.67;13.00;;;;;;;;5099488;27;46371;-75
2022/10/29 04:15:57;;;;;;;;;21.00;15.33;;;;;;;;5090584;27;45340;-75
2022/10/29 04:18:24;;;;;;;;;18.00;12.33;;;;;;;;5091484;27;45952;-75
2022/10/29 04:20:49;;;;;;;;;17.00;14.00;;;;;;;;5075991;27;46801;-75
2022/10/29 04:23:14;;;;;;;;;15.00;13.67;;;;;;;;5096535;27;45433;-75
2022/10/29 04:25:39;;;;;;;;;17.67;13.33;;;;;;;;5077996;27;45393;-75
2022/10/29 04:28:04;;;;;;;;;17.00;12.67;;;;;;;;5100085;27;45446;-75
2022/10/29 04:30:30;;;;;;;;;18.33;13.67;;;;;;;;5088001;27;45299;-75
2022/10/29 04:32:58;;;;;;;;;16.00;14.00;;;;;;;;5095516;27;45286;-75
2022/10/29 04:35:24;;;;;;;;;17.00;13.00;;;;;;;;5086364;27;45375;-75
2022/10/29 04:37:50;;;;;;;;;17.00;13.67;;;;;;;;5094090;27;45235;-75
2022/10/29 04:40:15;;;;;;;;;18.00;14.67;;;;;;;;5079236;27;47080;-75
2022/10/29 04:42:40;;;;;;;;;16.00;15.00;;;;;;;;5096070;27;45540;-75
2022/10/29 04:45:06;;;;;;;;;16.00;14.33;;;;;;;;5093910;27;45219;-75
2022/10/29 04:47:31;;;;;;;;;10.00;10.00;;;;;;;;5083210;27;45145;-75
2022/10/29 04:49:57;;;;;;;;;19.67;12.67;;;;;;;;5097303;27;45373;-75
2022/10/29 04:52:22;;;;;;;;;15.67;14.00;;;;;;;;5087139;27;45540;-75
2022/10/29 04:54:47;;;;;;;;;19.00;15.00;;;;;;;;5094903;27;45543;-75
2022/10/29 04:57:12;;;;;;;;;13.67;13.00;;;;;;;;5091178;27;45356;-75
2022/10/29 04:59:38;;;;;;;;;12.00;10.67;;;;;;;;5091505;27;45319;-75
2022/10/29 05:02:03;;;;;;;;;15.00;14.00;;;;;;;;5090588;27;45517;-75
2022/10/29 05:04:28;;;;;;;;;12.00;12.00;;;;;;;;5067908;27;45304;-75
2022/10/29 05:06:53;;;;;;;;;15.00;12.33;;;;;;;;5092923;27;45302;-76
2022/10/29 05:09:19;;;;;;;;;14.00;12.67;;;;;;;;5087700;27;45393;-75
2022/10/29 05:11:44;;;;;;;;;11.00;11.00;;;;;;;;5070255;27;48218;-75
2022/10/29 05:14:09;;;;;;;;;15.67;14.33;;;;;;;;5088161;27;45372;-75
2022/10/29 05:16:34;;;;;;;;;16.33;13.00;;;;;;;;5099291;27;45620;-75
2022/10/29 05:18:59;;;;;;;;;14.00;14.00;;;;;;;;5098579;27;45297;-75
2022/10/29 05:21:25;;;;;;;;;13.00;12.33;;;;;;;;5082422;27;47465;-75
2022/10/29 05:23:50;;;;;;;;;15.00;12.33;;;;;;;;5091531;27;45425;-74
2022/10/29 05:26:15;;;;;;;;;17.67;14.33;;;;;;;;5087075;27;45597;-74
2022/10/29 05:28:40;;;;;;;;;15.33;12.33;;;;;;;;5077293;27;45935;-75
2022/10/29 05:31:06;;;;;;;;;17.33;14.00;;;;;;;;5086921;27;45430;-75
2022/10/29 05:33:31;;;;;;;;;15.67;13.67;;;;;;;;5094854;27;45331;-74
2022/10/29 05:35:57;;;;;;;;;20.00;12.67;;;;;;;;5086542;27;45264;-75
2022/10/29 05:38:23;;;;;;;;;14.67;13.33;;;;;;;;5091713;27;45518;-75
2022/10/29 05:40:48;;;;;;;;;16.33;12.33;;;;;;;;5079873;27;47309;-76
2022/10/29 05:43:14;;;;;;;;;13.33;12.00;;;;;;;;5096938;27;45264;-75
2022/10/29 05:45:40;;;;;;;;;16.67;12.67;;;;;;;;5084669;27;45267;-75
2022/10/29 05:48:05;;;;;;;;;14.67;13.67;;;;;;;;5096148;27;45403;-74
2022/10/29 05:50:31;;;;;;;;;14.00;12.00;;;;;;;;5088298;27;45409;-75
2022/10/29 05:52:57;;;;;;;;;15.00;14.00;;;;;;;;5099018;27;45224;-75
2022/10/29 05:55:22;;;;;;;;;16.00;14.00;;;;;;;;5075138;27;45587;-75
2022/10/29 05:57:47;;;;;;;;;13.00;12.00;;;;;;;;5090764;27;45300;-76
2022/10/29 06:00:13;;;;;;;;;15.00;13.67;;;;;;;;5092820;27;46219;-75
2022/10/29 06:02:38;;;;;;;;;15.67;13.33;;;;;;;;5087020;27;45402;-76
2022/10/29 06:05:03;;;;;;;;;14.33;11.67;;;;;;;;5092001;27;45490;-76
2022/10/29 06:07:28;;;;;;;;;18.00;13.33;;;;;;;;5078008;27;45859;-75
2022/10/29 06:09:53;;;;;;;;;12.67;12.00;;;;;;;;5097100;27;46170;-75
2022/10/29 06:12:19;;;;;;;;;14.00;14.00;;;;;;;;5095225;27;45276;-74
2022/10/29 06:14:44;;;;;;;;;17.33;12.00;;;;;;;;5096119;27;45541;-76
2022/10/29 06:17:09;;;;;;;;;14.00;13.33;;;;;;;;5086946;27;45449;-76
2022/10/29 06:19:34;;;;;;;;;13.33;13.00;;;;;;;;5087523;27;46123;-75
2022/10/29 06:21:59;;;;;;;;;12.00;10.67;;;;;;;;5075755;27;45421;-78
2022/10/29 06:24:25;;;;;;;;;17.00;13.00;;;;;;;;5088326;27;45214;-76
2022/10/29 06:26:51;;;;;;;;;16.33;15.00;;;;;;;;5093280;27;45331;-77
2022/10/29 06:29:17;;;;;;;;;11.33;9.67;;;;;;;;5087007;27;46668;-81
2022/10/29 06:31:42;;;;;;;;;13.00;12.67;;;;;;;;5086097;27;45237;-74
2022/10/29 06:34:07;;;;;;;;;14.67;12.67;;;;;;;;5092656;27;45135;-76
2022/10/29 06:36:32;;;;;;;;;15.00;13.67;;;;;;;;5086034;27;45454;-74
2022/10/29 06:38:57;;;;;;;;;19.00;14.00;;;;;;;;5093902;27;45365;-76
2022/10/29 06:41:26;;;;;;;;;16.67;15.67;;;;;;;;5086412;27;45379;-78
2022/10/29 06:43:51;;;;;;;;;14.67;10.00;;;;;;;;5098720;27;45380;-74
2022/10/29 06:46:16;;;;;;;;;22.00;17.67;;;;;;;;5079939;27;45305;-75
2022/10/29 06:48:41;;;;;;;;;17.00;13.67;;;;;;;;5092327;27;46419;-75
2022/10/29 06:51:06;;;;;;;;;20.00;15.00;;;;;;;;5094549;27;45242;-77
2022/10/29 06:53:31;;;;;;;;;19.33;16.33;;;;;;;;5087514;27;45370;-76
2022/10/29 06:55:57;;;;;;;;;16.67;15.33;;;;;;;;5085362;27;45279;-76
2022/10/29 06:58:24;;;;;;;;;16.33;15.00;;;;;;;;5075014;27;48050;-76
2022/10/29 07:00:49;;;;;;;;;15.00;14.33;;;;;;;;5089703;27;45331;-74
2022/10/29 07:03:15;;;;;;;;;30.33;17.67;;;;;;;;5077861;27;45461;-74
2022/10/29 07:05:40;;;;;;;;;21.67;17.00;;;;;;;;5089421;27;45454;-73
2022/10/29 07:08:06;;;;;;;;;24.67;16.67;;;;;;;;5100383;27;45537;-75
2022/10/29 07:10:32;;;;;;;;;15.67;15.67;;;;;;;;5087010;27;45333;-72
2022/10/29 07:12:57;;;;;;;;;16.33;14.33;;;;;;;;5076730;27;45487;-72
2022/10/29 07:15:22;;;;;;;;;17.33;16.00;;;;;;;;5091198;27;46280;-72
2022/10/29 07:17:55;;;;;;;;;22.67;17.33;;;;;;;;5083930;27;47231;-72
2022/10/29 07:20:20;;;;;;;;;14.33;14.33;;;;;;;;5093498;27;45304;-72
2022/10/29 07:22:46;;;;;;;;;16.67;14.33;;;;;;;;5089317;27;45277;-72
2022/10/29 07:25:11;;;;;;;;;19.00;14.00;;;;;;;;5082791;27;45502;-72
2022/10/29 07:27:36;;;;;;;;;18.00;15.67;;;;;;;;5090169;27;46276;-72
2022/10/29 07:30:01;;;;;;;;;19.00;15.67;;;;;;;;5083052;27;45259;-71
2022/10/29 07:32:26;;;;;;;;;15.00;15.00;;;;;;;;5090231;27;45601;-71
2022/10/29 07:34:52;;;;;;;;;18.67;14.67;;;;;;;;5093636;27;45535;-71
2022/10/29 07:37:17;;;;;;;;;17.33;15.00;;;;;;;;5090334;27;46402;-71
2022/10/29 07:39:42;;;;;;;;;16.33;13.00;;;;;;;;5090761;27;45299;-71
2022/10/29 07:42:07;;;;;;;;;18.00;15.33;;;;;;;;5090735;27;45205;-71
2022/10/29 07:44:32;;;;;;;;;15.00;13.00;;;;;;;;5081181;27;45654;-73
2022/10/29 07:47:00;;;;;;;;;16.00;14.00;;;;;;;;5098127;27;46155;-71
2022/10/29 07:49:25;;;;;;;;;15.00;12.67;;;;;;;;5096252;27;45457;-71
2022/10/29 07:51:50;;;;;;;;;16.67;14.00;;;;;;;;5094100;27;45162;-70
2022/10/29 07:54:15;;;;;;;;;19.00;15.67;;;;;;;;5096229;27;45225;-71
2022/10/29 07:56:41;;;;;;;;;22.67;16.00;;;;;;;;5095184;27;45366;-70
2022/10/29 07:59:08;;;;;;;;;19.67;17.00;;;;;;;;5095663;27;45427;-71
2022/10/29 08:01:33;;;;;;;;;17.33;15.00;;;;;;;;5089400;27;45241;-73
2022/10/29 08:03:58;;;;;;;;;16.33;14.00;;;;;;;;5080108;27;46181;-73
2022/10/29 08:06:23;;;;;;;;;18.33;13.00;;;;;;;;5088686;27;46108;-73
2022/10/29 08:08:48;;;;;;;;;10.67;10.00;;;;;;;;5094039;27;45272;-73
2022/10/29 08:11:14;;;;;;;;;19.00;12.67;;;;;;;;5087435;27;45324;-75
2022/10/29 08:13:39;;;;;;;;;16.33;13.33;;;;;;;;5092474;27;45392;-74
2022/10/29 08:16:04;;;;;;;;;15.67;14.33;;;;;;;;5086402;27;45457;-73
2022/10/29 08:18:29;;;;;;;;;15.33;12.00;;;;;;;;5096248;27;45448;-73
2022/10/29 08:20:55;;;;;;;;;13.00;13.00;;;;;;;;5095747;27;45233;-73
2022/10/29 08:23:20;;;;;;;;;14.67;14.00;;;;;;;;5092739;27;45445;-74
2022/10/29 08:25:45;;;;;;;;;17.33;12.00;;;;;;;;5100460;27;46395;-73
2022/10/29 08:28:12;;;;;;;;;14.67;13.00;;;;;;;;5078355;27;45245;-73
2022/10/29 08:30:37;;;;;;;;;16.33;13.67;;;;;;;;5071428;28;45366;-73
2022/10/29 08:33:03;;;;;;;;;13.00;12.00;;;;;;;;5087405;27;45872;-71
2022/10/29 08:35:29;;;;;;;;;13.00;12.00;;;;;;;;5082040;27;46919;-71
2022/10/29 08:37:54;;;;;;;;;13.33;11.33;;;;;;;;5095225;27;45358;-71
2022/10/29 08:40:38;;;;;;;;;12.67;10.67;;;;;;;;5087038;27;45525;-71
2022/10/29 08:43:15;;;;;;;;;15.00;13.00;;;;;;;;5094458;27;45067;-74
2022/10/29 08:45:40;;;;;;;;;16.00;12.67;;;;;;;;5083959;27;46161;-74
2022/10/29 08:48:06;;;;;;;;;14.33;11.67;;;;;;;;5097841;27;45348;-74
2022/10/29 08:50:39;;;;;;;;;13.33;13.33;;;;;;;;5089426;27;45592;-74
2022/10/29 08:53:05;;;;;;;;;12.67;12.67;;;;;;;;5099694;27;44658;-72
2022/10/29 08:55:35;;;;;;;;;16.00;12.67;;;;;;;;5091221;27;45449;-72
2022/10/29 08:58:09;;;;;;;;;10.67;10.67;;;;;;;;5092211;27;45524;-72
2022/10/29 09:00:36;;;;;;;;;15.33;13.67;;;;;;;;5089061;27;45340;-72
2022/10/29 09:03:01;;;;;;;;;13.00;10.33;;;;;;;;5090172;27;45413;-72
2022/10/29 09:05:32;;;;;;;;;12.67;11.00;;;;;;;;5087457;27;45246;-72
2022/10/29 09:08:03;;;;;;;;;12.00;11.33;;;;;;;;5089353;27;45205;-72
2022/10/29 09:10:31;;;;;;;;;15.00;14.00;;;;;;;;5091697;27;45378;-72
2022/10/29 09:13:14;;;;;;;;;11.00;10.00;;;;;;;;5090732;27;45242;-72
2022/10/29 09:15:58;;;;;;;;;15.00;14.00;;;;;;;;5084521;27;45228;-72
2022/10/29 09:18:32;;;;;;;;;12.33;10.67;;;;;;;;5094105;27;45280;-73
2022/10/29 09:21:06;;;;;;;;;12.00;12.00;;;;;;;;5087017;27;45471;-72
2022/10/29 09:23:50;;;;;;;;;17.00;15.33;;;;;;;;5088350;27;45433;-72
2022/10/29 09:26:20;;;;;;;;;22.00;21.67;;;;;;;;5084821;27;46562;-72
2022/10/29 09:29:04;;;;;;;;;26.33;24.00;;;;;;;;5088635;27;45247;-72
2022/10/29 09:31:49;;;;;;;;;19.00;16.67;;;;;;;;5085678;27;45447;-72
2022/10/29 09:34:17;;;;;;;;;28.67;25.33;;;;;;;;5089916;27;45434;-75
2022/10/29 09:36:44;;;;;;;;;23.67;22.00;;;;;;;;5085335;27;45536;-73
2022/10/29 09:39:12;;;;;;;;;13.67;13.67;;;;;;;;5086095;27;45376;-74
2022/10/29 09:41:38;;;;;;;;;27.33;23.33;;;;;;;;5087070;27;45414;-73
2022/10/29 09:44:14;;;;;;;;;31.75;27.00;;;;;;;;5047367;27;1207122;-74
2022/10/29 09:46:48;;;;;;;;;24.33;21.33;;;;;;;;5090283;27;45296;-73
2022/10/29 09:49:20;;;;;;;;;21.33;21.00;;;;;;;;5096545;27;45169;-73
2022/10/29 09:52:04;;;;;;;;;18.00;17.00;;;;;;;;5091776;27;45354;-73
2022/10/29 09:54:30;;;;;;;;;18.67;16.67;;;;;;;;5092898;27;45451;-73
2022/10/29 09:56:56;;;;;;;;;19.67;19.33;;;;;;;;5091334;27;46187;-73
2022/10/29 09:59:21;;;;;;;;;17.67;17.00;;;;;;;;5079760;27;45378;-73
2022/10/29 10:01:48;;;;;;;;;17.25;13.75;;;;;;;;5086499;27;45651;-71
2022/10/29 10:04:19;;;;;;;;;28.67;27.67;;;;;;;;5094751;27;45450;-72
2022/10/29 10:07:01;;;;;;;;;16.33;15.00;;;;;;;;5079298;27;45465;-73
2022/10/29 10:09:26;;;;;;;;;17.67;14.33;;;;;;;;5079008;27;45485;-74
2022/10/29 10:11:53;;;;;;;;;16.00;14.67;;;;;;;;5082181;27;45403;-74
2022/10/29 10:14:22;;;;;;;;;13.00;10.00;;;;;;;;5085141;27;45570;-72
2022/10/29 10:16:56;;;;;;;;;9.00;7.67;;;;;;;;5083367;27;46294;-75
2022/10/29 10:19:23;;;;;;;;;14.33;10.33;;;;;;;;5071150;27;45426;-79
2022/10/29 10:21:58;;;;;;;;;12.67;11.67;;;;;;;;5081751;27;45182;-81
2022/10/29 10:24:31;;;;;;;;;16.00;11.00;;;;;;;;5076636;27;45586;-75
2022/10/29 10:26:57;;;;;;;;;9.67;9.67;;;;;;;;5083981;27;45432;-77
2022/10/29 10:29:22;;;;;;;;;14.33;12.00;;;;;;;;5074307;27;46103;-78
2022/10/29 10:31:49;;;;;;;;;11.67;10.33;;;;;;;;5087642;27;45501;-79
2022/10/29 10:34:16;;;;;;;;;17.67;16.00;;;;;;;;5090722;27;45379;-78
2022/10/29 10:36:43;;;;;;;;;15.67;15.00;;;;;;;;5086090;27;46394;-79
2022/10/29 10:39:23;;;;;;;;;25.33;23.67;;;;;;;;5086911;27;45675;-78
2022/10/29 10:41:49;;;;;;;;;14.67;12.67;;;;;;;;5087781;27;45319;-79
2022/10/29 10:44:15;;;;;;;;;14.33;13.00;;;;;;;;5088430;27;45426;-78
2022/10/29 10:46:42;;;;;;;;;13.00;10.00;;;;;;;;5070320;27;47058;-78
2022/10/29 10:49:10;;;;;;;;;7.50;7.00;;;;;;;;5095368;27;45433;-78
2022/10/29 10:51:36;;;;;;;;;14.67;11.67;;;;;;;;5089601;27;45485;-79
2022/10/29 10:54:06;;;;;;;;;16.33;14.00;;;;;;;;5075494;27;46724;-79
2022/10/29 10:56:31;;;;;;;;;16.00;14.25;;;;;;;;5093581;27;45679;-78
2022/10/29 10:59:03;;;;;;;;;9.50;7.75;;;;;;;;5094863;27;45361;-80
2022/10/29 11:01:49;;;;;;;;;14.00;12.00;;;;;;;;5077101;27;45367;-78
2022/10/29 11:04:24;;;;;;;;;10.00;7.75;;;;;;;;5088853;27;45574;-78
2022/10/29 11:06:52;;;;;;;;;17.25;13.25;;;;;;;;5078998;27;45367;-77
2022/10/29 11:09:25;;;;;;;;;16.00;12.75;;;;;;;;5088763;27;45228;-78
2022/10/29 11:12:00;;;;;;;;;13.00;9.75;;;;;;;;5084963;27;45433;-79
2022/10/29 11:14:41;;;;;;;;;7.50;7.00;;;;;;;;5087964;27;45262;-78
2022/10/29 11:17:13;;;;;;;;;10.00;7.50;;;;;;;;5084987;27;45955;-78
2022/10/29 11:19:45;;;;;;;;;10.50;8.75;;;;;;;;5085845;27;45751;-79
2022/10/29 11:22:29;;;;;;;;;11.25;9.00;;;;;;;;5086322;27;45288;-78
2022/10/29 11:25:01;;;;;;;;;12.75;10.75;;;;;;;;5085061;27;45372;-77
2022/10/29 11:27:41;;;;;;;;;7.75;7.75;;;;;;;;5090304;27;46392;-76
2022/10/29 11:30:11;;;;;;;;;10.25;8.50;;;;;;;;5092301;27;45206;-76
2022/10/29 11:32:50;;;;;;;;;9.75;9.75;;;;;;;;5092192;27;45438;-76
2022/10/29 11:35:34;;;;;;;;;6.50;6.50;;;;;;;;5085247;27;45213;-79
2022/10/29 11:38:21;;;;;;;;;6.00;6.00;;;;;;;;5075171;27;46741;-78
2022/10/29 11:40:54;;;;;;;;;8.60;6.60;;;;;;;;5078772;27;45171;-78
2022/10/29 11:43:20;;;;;;;;;8.00;6.75;;;;;;;;5081713;27;45260;-76
2022/10/29 11:46:04;;;;;;;;;11.75;7.75;;;;;;;;5084193;27;45400;-76
2022/10/29 11:48:32;;;;;;;;;9.25;8.00;;;;;;;;5087291;27;47178;-77
2022/10/29 11:51:04;;;;;;;;;9.00;8.00;;;;;;;;5082065;27;45318;-78
2022/10/29 11:53:30;;;;;;;;;9.75;7.25;;;;;;;;5091496;27;45530;-77
2022/10/29 11:56:08;;;;;;;;;8.75;8.75;;;;;;;;5068217;27;45530;-77
2022/10/29 11:58:37;;;;;;;;;9.25;9.00;;;;;;;;5090157;27;46254;-75
2022/10/29 12:01:14;;;;;;;;;9.80;8.40;;;;;;;;5081726;27;45421;-77
2022/10/29 12:03:58;;;;;;;;;14.50;12.00;;;;;;;;5078585;27;45610;-76
2022/10/29 12:06:23;;;;;;;;;8.00;7.00;;;;;;;;5082147;27;46306;-77
2022/10/29 12:08:59;;;;;;;;;8.75;8.00;;;;;;;;5080558;27;45424;-76
2022/10/29 12:11:34;;;;;;;;;10.00;8.80;;;;;;;;5080983;27;45292;-75
2022/10/29 12:14:19;;;;;;;;;12.50;11.00;;;;;;;;5089012;27;45647;-76
2022/10/29 12:17:10;;;;;;;;;11.25;7.75;;;;;;;;5080463;27;45274;-77
2022/10/29 12:20:01;;;;;;;;;8.00;7.00;;;;;;;;5078977;27;47444;-76
2022/10/29 12:22:29;;;;;;;;;10.75;8.75;;;;;;;;5094522;27;45453;-76
2022/10/29 12:25:01;;;;;;;;;9.50;7.25;;;;;;;;5082107;27;45272;-75
2022/10/29 12:27:45;;;;;;;;;5.50;5.00;;;;;;;;5081834;27;45532;-76
2022/10/29 12:30:12;;;;;;;;;9.25;7.00;;;;;;;;5081535;27;45698;-76
2022/10/29 12:32:49;;;;;;;;;11.25;8.25;;;;;;;;5079259;27;45457;-76
2022/10/29 12:35:14;;;;;;;;;6.50;6.50;;;;;;;;5082863;27;45493;-77
2022/10/29 12:37:48;;;;;;;;;7.25;7.25;;;;;;;;5082031;27;45300;-76
2022/10/29 12:40:43;;;;;;;;;11.00;9.00;;;;;;;;5083878;27;45755;-75
2022/10/29 12:43:22;;;;;;;;;9.50;6.75;;;;;;;;5082471;27;45554;-76
2022/10/29 12:45:54;;;;;;;;;5.00;5.00;;;;;;;;5073030;27;45380;-76
2022/10/29 12:48:19;;;;;;;;;6.25;6.25;;;;;;;;5078144;27;45934;-75
2022/10/29 12:50:44;;;;;;;;;9.75;8.00;;;;;;;;5081888;27;45273;-76
2022/10/29 12:53:12;;;;;;;;;10.60;7.00;;;;;;;;5086657;27;45291;-76
2022/10/29 12:55:38;;;;;;;;;8.50;6.25;;;;;;;;5075561;28;45367;-76
2022/10/29 12:58:22;;;;;;;;;8.00;7.75;;;;;;;;5095448;27;45483;-76
2022/10/29 13:00:47;;;;;;;;;12.25;7.00;;;;;;;;5086862;27;45544;-78
2022/10/29 13:03:32;;;;;;;;;6.75;6.00;;;;;;;;5089486;27;45252;-75
2022/10/29 13:05:57;;;;;;;;;7.75;6.25;;;;;;;;5090353;27;45372;-75
2022/10/29 13:08:27;;;;;;;;;12.25;8.25;;;;;;;;5075024;27;45724;-75
2022/10/29 13:10:54;;;;;;;;;6.25;4.75;;;;;;;;5073368;27;47153;-75
2022/10/29 13:13:22;;;;;;;;;6.40;6.40;;;;;;;;5098688;27;45382;-75
2022/10/29 13:16:08;;;;;;;;;5.50;5.50;;;;;;;;5097503;27;45453;-75
2022/10/29 13:18:39;;;;;;;;;6.25;6.00;;;;;;;;5056896;27;45930;-75
2022/10/29 13:21:04;;;;;;;;;9.00;6.50;;;;;;;;5088384;27;46268;-75
2022/10/29 13:23:30;;;;;;;;;8.25;5.75;;;;;;;;5077675;27;45921;-75
2022/10/29 13:25:56;;;;;;;;;5.75;4.50;;;;;;;;5087431;27;45234;-75
2022/10/29 13:28:22;;;;;;;;;5.50;4.50;;;;;;;;5080004;27;45492;-75
2022/10/29 13:30:48;;;;;;;;;9.25;7.00;;;;;;;;5100127;27;45369;-75
2022/10/29 13:33:22;;;;;;;;;7.40;5.20;;;;;;;;5086576;27;45466;-75
2022/10/29 13:35:51;;;;;;;;;6.25;5.00;;;;;;;;5085696;27;45296;-75
2022/10/29 13:38:16;;;;;;;;;7.00;5.25;;;;;;;;5084173;27;45471;-75
2022/10/29 13:41:00;;;;;;;;;8.00;5.75;;;;;;;;5087448;27;45392;-75
2022/10/29 13:43:26;;;;;;;;;8.80;5.80;;;;;;;;5087216;27;45627;-74
2022/10/29 13:45:59;;;;;;;;;6.00;6.00;;;;;;;;5095702;27;45218;-75
2022/10/29 13:48:28;;;;;;;;;8.25;5.00;;;;;;;;5070305;27;45537;-74
2022/10/29 13:50:54;;;;;;;;;9.75;5.25;;;;;;;;5087747;27;46086;-75
2022/10/29 13:53:24;;;;;;;;;6.40;6.40;;;;;;;;5085021;27;45381;-75
2022/10/29 13:55:50;;;;;;;;;12.50;11.75;;;;;;;;5081579;27;45352;-73
2022/10/29 13:58:21;;;;;;;;;10.50;7.25;;;;;;;;5095548;27;45455;-76
2022/10/29 14:00:46;;;;;;;;;8.75;8.75;;;;;;;;5065850;27;48703;-75
2022/10/29 14:03:21;;;;;;;;;6.75;6.00;;;;;;;;5091802;27;45417;-75
2022/10/29 14:05:55;;;;;;;;;6.25;6.25;;;;;;;;5083626;27;45438;-75
2022/10/29 14:08:30;;;;;;;;;6.00;5.50;;;;;;;;5076953;27;45422;-76
2022/10/29 14:10:58;;;;;;;;;6.25;6.25;;;;;;;;5088254;27;46399;-75
2022/10/29 14:13:30;;;;;;;;;8.75;5.75;;;;;;;;5095321;27;45351;-76
2022/10/29 14:16:04;;;;;;;;;7.75;5.00;;;;;;;;5080064;27;45327;-75
2022/10/29 14:18:30;;;;;;;;;7.00;6.00;;;;;;;;5078574;27;45932;-75
2022/10/29 14:20:56;;;;;;;;;4.25;4.25;;;;;;;;5079977;27;45480;-75
2022/10/29 14:23:22;;;;;;;;;9.00;4.75;;;;;;;;5086716;27;45501;-75
2022/10/29 14:25:54;;;;;;;;;6.00;6.00;;;;;;;;5080466;27;45434;-76
2022/10/29 14:28:29;;;;;;;;;7.75;7.00;;;;;;;;5083154;27;45347;-75